As Fabrizia — CQIU3 — position and weather

sailwx.info

Track history (hours):
 
Tides and Currents Weather Stations Pressure Air Temp Water Temp Dewpoint Dewpoint Depression Visibility Wind Speed Wind Dir Waves Ship Positions

As Fabrizia

Last reported at 2018-Feb-20 11:21 UTC. Time now 2018-Feb-21 23:06 UTC.
Position N 26°07' W 079°22'.

Length 166 m.

Type: Ship. MMSI: 255806069.

Date/timePositionNaut miles runAvg speedWind from/ knotsBaromVisibWave heightAir tempDewpointWater temp
2018-Feb-20 11:21N 26°07' W 079°22'616.8
2018-Feb-20 11:00N 26°13' W 079°22'78617.1
2018-Feb-18 12:57N 38°48' W 075°03'4 8.6
2018-Feb-18 12:30N 38°51' W 075°05'815.5
2018-Feb-18 12:00N 38°59' W 075°08'816.0
2018-Feb-18 11:30N 39°06' W 075°12'816.9
2018-Feb-18 11:00N 39°13' W 075°18'918.3
2018-Feb-18 10:30N 39°20' W 075°25'918.5
2018-Feb-18 10:00N 39°27' W 075°33'815.6
2018-Feb-18 09:30N 39°35' W 075°33'611.1
2018-Feb-18 09:01N 39°40' W 075°32'815.1
2018-Feb-18 08:31N 39°47' W 075°27'4 8.3
2018-Feb-18 08:01N 39°49' W 075°23'3 5.3
2018-Feb-18 07:30N 39°51' W 075°20'0 0.0
2018-Feb-18 07:00N 39°51' W 075°20'0 0.0
2018-Feb-18 06:30N 39°51' W 075°20'0 0.0
2018-Feb-18 06:00N 39°51' W 075°20'0 0.0
2018-Feb-18 05:30N 39°51' W 075°20'0 0.0
2018-Feb-18 05:00N 39°51' W 075°20'0 0.0
2018-Feb-18 04:30N 39°51' W 075°20'0 0.0
2018-Feb-18 04:00N 39°51' W 075°20'0 0.0
2018-Feb-18 03:30N 39°51' W 075°20'0 0.0
2018-Feb-18 03:00N 39°51' W 075°20'0 0.0
2018-Feb-18 02:30N 39°51' W 075°20'0 0.0
2018-Feb-18 02:00N 39°51' W 075°20'0 0.0
2018-Feb-18 01:30N 39°51' W 075°20'0 0.0
2018-Feb-18 01:00N 39°51' W 075°20'0 0.0
2018-Feb-18 00:30N 39°51' W 075°20'0 0.0
2018-Feb-18 00:00N 39°51' W 075°20'0 0.0
2018-Feb-17 23:31N 39°51' W 075°20'0 0.0
2018-Feb-17 23:00N 39°51' W 075°20'0 0.0
2018-Feb-17 22:30N 39°51' W 075°20'0 0.0
2018-Feb-17 22:00N 39°51' W 075°20'0 0.0
2018-Feb-17 21:30N 39°51' W 075°20'0 0.0
2018-Feb-17 21:00N 39°51' W 075°20'0 0.2
2018-Feb-17 20:30N 39°51' W 075°20'2 3.9
2018-Feb-17 20:00N 39°51' W 075°18'4 8.5
2018-Feb-17 19:30N 39°52' W 075°13'4 7.7
2018-Feb-17 19:01N 39°54' W 075°08'1 1.8
2018-Feb-17 18:26N 39°55' W 075°08'0 0.0
2018-Feb-17 17:59N 39°55' W 075°08'0 0.0
2018-Feb-17 17:29N 39°55' W 075°08'0 0.0
2018-Feb-17 16:59N 39°55' W 075°08'0 0.0
2018-Feb-17 16:29N 39°55' W 075°08'0 0.0
2018-Feb-17 15:59N 39°55' W 075°08'0 0.0
2018-Feb-17 15:29N 39°55' W 075°08'0 0.0
2018-Feb-17 14:59N 39°55' W 075°08'0 0.0
2018-Feb-17 14:29N 39°55' W 075°08'0 0.0
2018-Feb-17 13:59N 39°55' W 075°08'0 0.0
2018-Feb-17 13:23N 39°55' W 075°08'0 0.0
2018-Feb-17 12:59N 39°55' W 075°08'0 0.0
2018-Feb-17 12:29N 39°55' W 075°08'0 0.0
2018-Feb-17 11:59N 39°55' W 075°08'0 0.0
2018-Feb-16 18:54N 39°55' W 075°08'0 0.0
2018-Feb-16 18:29N 39°55' W 075°08'0 0.0
2018-Feb-16 17:59N 39°55' W 075°08'0 0.0
2018-Feb-16 17:29N 39°55' W 075°08'0 0.0
2018-Feb-16 16:59N 39°55' W 075°08'0 0.0
2018-Feb-16 16:23N 39°55' W 075°08'0 0.0
2018-Feb-16 15:59N 39°55' W 075°08'0 0.0
2018-Feb-16 15:29N 39°55' W 075°08'0 0.0
2018-Feb-16 14:59N 39°55' W 075°08'0 0.0
2018-Feb-16 14:29N 39°55' W 075°08'0 0.6
2018-Feb-16 14:00N 39°55' W 075°08'2 4.5
2018-Feb-16 13:30N 39°53' W 075°09'4 7.2
2018-Feb-16 13:00N 39°52' W 075°14'4 8.2
2018-Feb-16 12:30N 39°51' W 075°19'1 2.5
2018-Feb-16 12:00N 39°51' W 075°20'0 0.0
2018-Feb-16 11:30N 39°51' W 075°20'0 0.0
2018-Feb-16 10:57N 39°51' W 075°20'0 0.0
2018-Feb-16 10:30N 39°51' W 075°20'0 0.0
2018-Feb-16 10:00N 39°51' W 075°20'0 0.0
2018-Feb-16 09:30N 39°51' W 075°20'0 0.0
2018-Feb-16 09:00N 39°51' W 075°20'0 0.0
2018-Feb-16 08:30N 39°51' W 075°20'0 0.0
2018-Feb-16 07:59N 39°51' W 075°20'0 0.0
2018-Feb-16 07:29N 39°51' W 075°20'0 0.0
2018-Feb-16 06:59N 39°51' W 075°20'0 0.0
2018-Feb-16 06:30N 39°51' W 075°20'0 0.3
2018-Feb-16 06:00N 39°51' W 075°20'2 4.5
2018-Feb-16 05:30N 39°49' W 075°23'3 6.8
2018-Feb-16 05:00N 39°48' W 075°26'4 7.9
2018-Feb-16 04:31N 39°45' W 075°30'4 7.9
2018-Feb-16 04:01N 39°41' W 075°31'4 8.0
2018-Feb-16 03:31N 39°38' W 075°34'612.6
2018-Feb-16 03:01N 39°32' W 075°33'713.1
2018-Feb-16 02:30N 39°25' W 075°31'714.9
2018-Feb-16 02:00N 39°20' W 075°25'816.2
2018-Feb-16 01:30N 39°13' W 075°18'3213.4
2018-Feb-15 23:05N 38°45' W 074°57'1 9.6
2018-Feb-15 23:00N 38°45' W 074°57'5 9.5
2018-Feb-15 22:29N 38°41' W 074°53'1410.1
2018-Feb-15 21:07N 38°30' W 074°42'215.8
2018-Feb-15 21:00N 38°28' W 074°41'26917.6
2018-Feb-15 05:44N 34°01' W 075°19'51117.0
2018-Feb-13 23:37N 26°17' W 079°27'218.9
2018-Feb-13 23:30N 26°15' W 079°28'1019.1
2018-Feb-13 23:00N 26°05' W 079°29'1019.3
2018-Feb-13 22:30N 25°56' W 079°30'918.4
2018-Feb-13 22:00N 25°46' W 079°31'1418.8
2018-Feb-13 21:17N 25°33' W 079°33'  
Track history (hours):
 
Tides and Currents Weather Stations Pressure Air Temp Water Temp Dewpoint Dewpoint Depression Visibility Wind Speed Wind Dir Waves Ship Positions

As Fabrizia

Last reported at 2018-Feb-20 11:21 UTC. Time now 2018-Feb-21 23:06 UTC.
Position N 26°07' W 079°22'.

Length 166 m.

Type: Ship. MMSI: 255806069.

Date/timePositionNaut miles runAvg speedWind from/ knotsBaromVisibWave heightAir tempDewpointWater temp
2018-Feb-20 11:21N 26°07' W 079°22'616.8
2018-Feb-20 11:00N 26°13' W 079°22'78617.1
2018-Feb-18 12:57N 38°48' W 075°03'4 8.6
2018-Feb-18 12:30N 38°51' W 075°05'815.5
2018-Feb-18 12:00N 38°59' W 075°08'816.0
2018-Feb-18 11:30N 39°06' W 075°12'816.9
2018-Feb-18 11:00N 39°13' W 075°18'918.3
2018-Feb-18 10:30N 39°20' W 075°25'918.5
2018-Feb-18 10:00N 39°27' W 075°33'815.6
2018-Feb-18 09:30N 39°35' W 075°33'611.1
2018-Feb-18 09:01N 39°40' W 075°32'815.1
2018-Feb-18 08:31N 39°47' W 075°27'4 8.3
2018-Feb-18 08:01N 39°49' W 075°23'3 5.3
2018-Feb-18 07:30N 39°51' W 075°20'0 0.0
2018-Feb-18 07:00N 39°51' W 075°20'0 0.0
2018-Feb-18 06:30N 39°51' W 075°20'0 0.0
2018-Feb-18 06:00N 39°51' W 075°20'0 0.0
2018-Feb-18 05:30N 39°51' W 075°20'0 0.0
2018-Feb-18 05:00N 39°51' W 075°20'0 0.0
2018-Feb-18 04:30N 39°51' W 075°20'0 0.0
2018-Feb-18 04:00N 39°51' W 075°20'0 0.0
2018-Feb-18 03:30N 39°51' W 075°20'0 0.0
2018-Feb-18 03:00N 39°51' W 075°20'0 0.0
2018-Feb-18 02:30N 39°51' W 075°20'0 0.0
2018-Feb-18 02:00N 39°51' W 075°20'0 0.0
2018-Feb-18 01:30N 39°51' W 075°20'0 0.0
2018-Feb-18 01:00N 39°51' W 075°20'0 0.0
2018-Feb-18 00:30N 39°51' W 075°20'0 0.0
2018-Feb-18 00:00N 39°51' W 075°20'0 0.0
2018-Feb-17 23:31N 39°51' W 075°20'0 0.0
2018-Feb-17 23:00N 39°51' W 075°20'0 0.0
2018-Feb-17 22:30N 39°51' W 075°20'0 0.0
2018-Feb-17 22:00N 39°51' W 075°20'0 0.0
2018-Feb-17 21:30N 39°51' W 075°20'0 0.0
2018-Feb-17 21:00N 39°51' W 075°20'0 0.2
2018-Feb-17 20:30N 39°51' W 075°20'2 3.9
2018-Feb-17 20:00N 39°51' W 075°18'4 8.5
2018-Feb-17 19:30N 39°52' W 075°13'4 7.7
2018-Feb-17 19:01N 39°54' W 075°08'1 1.8
2018-Feb-17 18:26N 39°55' W 075°08'0 0.0
2018-Feb-17 17:59N 39°55' W 075°08'0 0.0
2018-Feb-17 17:29N 39°55' W 075°08'0 0.0
2018-Feb-17 16:59N 39°55' W 075°08'0 0.0
2018-Feb-17 16:29N 39°55' W 075°08'0 0.0
2018-Feb-17 15:59N 39°55' W 075°08'0 0.0
2018-Feb-17 15:29N 39°55' W 075°08'0 0.0
2018-Feb-17 14:59N 39°55' W 075°08'0 0.0
2018-Feb-17 14:29N 39°55' W 075°08'0 0.0
2018-Feb-17 13:59N 39°55' W 075°08'0 0.0
2018-Feb-17 13:23N 39°55' W 075°08'0 0.0
2018-Feb-17 12:59N 39°55' W 075°08'0 0.0
2018-Feb-17 12:29N 39°55' W 075°08'0 0.0
2018-Feb-17 11:59N 39°55' W 075°08'0 0.0
2018-Feb-16 18:54N 39°55' W 075°08'0 0.0
2018-Feb-16 18:29N 39°55' W 075°08'0 0.0
2018-Feb-16 17:59N 39°55' W 075°08'0 0.0
2018-Feb-16 17:29N 39°55' W 075°08'0 0.0
2018-Feb-16 16:59N 39°55' W 075°08'0 0.0
2018-Feb-16 16:23N 39°55' W 075°08'0 0.0
2018-Feb-16 15:59N 39°55' W 075°08'0 0.0
2018-Feb-16 15:29N 39°55' W 075°08'0 0.0
2018-Feb-16 14:59N 39°55' W 075°08'0 0.0
2018-Feb-16 14:29N 39°55' W 075°08'0 0.6
2018-Feb-16 14:00N 39°55' W 075°08'2 4.5
2018-Feb-16 13:30N 39°53' W 075°09'4 7.2
2018-Feb-16 13:00N 39°52' W 075°14'4 8.2
2018-Feb-16 12:30N 39°51' W 075°19'1 2.5
2018-Feb-16 12:00N 39°51' W 075°20'0 0.0
2018-Feb-16 11:30N 39°51' W 075°20'0 0.0
2018-Feb-16 10:57N 39°51' W 075°20'0 0.0
2018-Feb-16 10:30N 39°51' W 075°20'0 0.0
2018-Feb-16 10:00N 39°51' W 075°20'0 0.0
2018-Feb-16 09:30N 39°51' W 075°20'0 0.0
2018-Feb-16 09:00N 39°51' W 075°20'0 0.0
2018-Feb-16 08:30N 39°51' W 075°20'0 0.0
2018-Feb-16 07:59N 39°51' W 075°20'0 0.0
2018-Feb-16 07:29N 39°51' W 075°20'0 0.0
2018-Feb-16 06:59N 39°51' W 075°20'0 0.0
2018-Feb-16 06:30N 39°51' W 075°20'0 0.3
2018-Feb-16 06:00N 39°51' W 075°20'2 4.5
2018-Feb-16 05:30N 39°49' W 075°23'3 6.8
2018-Feb-16 05:00N 39°48' W 075°26'4 7.9
2018-Feb-16 04:31N 39°45' W 075°30'4 7.9
2018-Feb-16 04:01N 39°41' W 075°31'4 8.0
2018-Feb-16 03:31N 39°38' W 075°34'612.6
2018-Feb-16 03:01N 39°32' W 075°33'713.1
2018-Feb-16 02:30N 39°25' W 075°31'714.9
2018-Feb-16 02:00N 39°20' W 075°25'816.2
2018-Feb-16 01:30N 39°13' W 075°18'3213.4
2018-Feb-15 23:05N 38°45' W 074°57'1 9.6
2018-Feb-15 23:00N 38°45' W 074°57'5 9.5
2018-Feb-15 22:29N 38°41' W 074°53'1410.1
2018-Feb-15 21:07N 38°30' W 074°42'215.8
2018-Feb-15 21:00N 38°28' W 074°41'26917.6
2018-Feb-15 05:44N 34°01' W 075°19'51117.0
2018-Feb-13 23:37N 26°17' W 079°27'218.9
2018-Feb-13 23:30N 26°15' W 079°28'1019.1
2018-Feb-13 23:00N 26°05' W 079°29'1019.3
2018-Feb-13 22:30N 25°56' W 079°30'918.4
2018-Feb-13 22:00N 25°46' W 079°31'1418.8
2018-Feb-13 21:17N 25°33' W 079°33'  

Dump ship's entire track history